sensor_id;sensor_type;location;lat;lon;timestamp;P1;durP1;ratioP1;P2;durP2;ratioP2
29030;SDS011;16122;50.236;11.734;2023-03-31T00:01:29;1.93;;;1.60;;
29030;SDS011;16122;50.236;11.734;2023-03-31T00:03:58;1.83;;;1.50;;
29030;SDS011;16122;50.236;11.734;2023-03-31T00:06:33;1.47;;;1.37;;
29030;SDS011;16122;50.236;11.734;2023-03-31T00:09:12;1.83;;;1.47;;
29030;SDS011;16122;50.236;11.734;2023-03-31T00:11:48;1.50;;;1.40;;
29030;SDS011;16122;50.236;11.734;2023-03-31T00:14:15;1.60;;;1.40;;
29030;SDS011;16122;50.236;11.734;2023-03-31T00:16:42;1.63;;;1.30;;
29030;SDS011;16122;50.236;11.734;2023-03-31T00:19:09;1.67;;;1.37;;
29030;SDS011;16122;50.236;11.734;2023-03-31T00:21:42;1.63;;;1.50;;
29030;SDS011;16122;50.236;11.734;2023-03-31T00:24:10;1.60;;;1.50;;
29030;SDS011;16122;50.236;11.734;2023-03-31T00:26:37;1.40;;;1.20;;
29030;SDS011;16122;50.236;11.734;2023-03-31T00:29:04;1.20;;;1.10;;
29030;SDS011;16122;50.236;11.734;2023-03-31T00:31:31;1.53;;;1.43;;
29030;SDS011;16122;50.236;11.734;2023-03-31T00:33:57;1.40;;;1.30;;
29030;SDS011;16122;50.236;11.734;2023-03-31T00:36:23;2.13;;;1.57;;
29030;SDS011;16122;50.236;11.734;2023-03-31T00:38:54;2.00;;;1.40;;
29030;SDS011;16122;50.236;11.734;2023-03-31T00:41:33;1.43;;;1.20;;
29030;SDS011;16122;50.236;11.734;2023-03-31T00:44:05;1.30;;;1.20;;
29030;SDS011;16122;50.236;11.734;2023-03-31T00:46:39;1.63;;;1.47;;
29030;SDS011;16122;50.236;11.734;2023-03-31T00:49:07;1.97;;;1.60;;
29030;SDS011;16122;50.236;11.734;2023-03-31T00:51:51;1.77;;;1.60;;
29030;SDS011;16122;50.236;11.734;2023-03-31T00:54:21;1.80;;;1.70;;
29030;SDS011;16122;50.236;11.734;2023-03-31T00:56:50;2.50;;;1.63;;
29030;SDS011;16122;50.236;11.734;2023-03-31T00:59:19;1.53;;;1.40;;
29030;SDS011;16122;50.236;11.734;2023-03-31T01:01:52;2.90;;;1.30;;
29030;SDS011;16122;50.236;11.734;2023-03-31T01:04:19;1.77;;;1.20;;
29030;SDS011;16122;50.236;11.734;2023-03-31T01:06:54;2.10;;;1.47;;
29030;SDS011;16122;50.236;11.734;2023-03-31T01:09:43;1.50;;;1.40;;
29030;SDS011;16122;50.236;11.734;2023-03-31T01:12:13;2.50;;;1.90;;
29030;SDS011;16122;50.236;11.734;2023-03-31T01:14:42;1.97;;;1.53;;
29030;SDS011;16122;50.236;11.734;2023-03-31T01:17:08;1.50;;;1.40;;
29030;SDS011;16122;50.236;11.734;2023-03-31T01:28:12;1.50;;;1.40;;
29030;SDS011;16122;50.236;11.734;2023-03-31T01:45:12;1.83;;;1.63;;
29030;SDS011;16122;50.236;11.734;2023-03-31T01:48:06;2.23;;;2.00;;
29030;SDS011;16122;50.236;11.734;2023-03-31T01:50:57;2.23;;;1.60;;
29030;SDS011;16122;50.236;11.734;2023-03-31T02:01:40;1.50;;;1.40;;
29030;SDS011;16122;50.236;11.734;2023-03-31T02:04:15;1.30;;;1.20;;
29030;SDS011;16122;50.236;11.734;2023-03-31T02:06:50;1.50;;;1.33;;
29030;SDS011;16122;50.236;11.734;2023-03-31T02:09:40;1.60;;;1.50;;
29030;SDS011;16122;50.236;11.734;2023-03-31T02:12:10;1.60;;;1.50;;
29030;SDS011;16122;50.236;11.734;2023-03-31T02:14:38;2.30;;;1.67;;
29030;SDS011;16122;50.236;11.734;2023-03-31T02:17:07;1.63;;;1.53;;
29030;SDS011;16122;50.236;11.734;2023-03-31T02:19:42;1.40;;;1.30;;
29030;SDS011;16122;50.236;11.734;2023-03-31T02:22:13;2.50;;;1.40;;
29030;SDS011;16122;50.236;11.734;2023-03-31T02:24:46;1.40;;;1.20;;
29030;SDS011;16122;50.236;11.734;2023-03-31T02:27:19;3.80;;;1.13;;
29030;SDS011;16122;50.236;11.734;2023-03-31T02:29:49;1.23;;;1.10;;
29030;SDS011;16122;50.236;11.734;2023-03-31T02:32:30;1.40;;;1.13;;
29030;SDS011;16122;50.236;11.734;2023-03-31T02:35:04;1.27;;;1.17;;
29030;SDS011;16122;50.236;11.734;2023-03-31T02:37:33;1.50;;;1.20;;
29030;SDS011;16122;50.236;11.734;2023-03-31T02:40:00;1.30;;;1.20;;
29030;SDS011;16122;50.236;11.734;2023-03-31T02:42:35;2.03;;;1.47;;
29030;SDS011;16122;50.236;11.734;2023-03-31T02:45:03;1.50;;;1.40;;
29030;SDS011;16122;50.236;11.734;2023-03-31T02:47:30;1.20;;;1.10;;
29030;SDS011;16122;50.236;11.734;2023-03-31T02:49:59;1.67;;;1.20;;
29030;SDS011;16122;50.236;11.734;2023-03-31T02:52:34;1.20;;;1.10;;
29030;SDS011;16122;50.236;11.734;2023-03-31T03:01:06;1.50;;;1.40;;
29030;SDS011;16122;50.236;11.734;2023-03-31T03:04:05;1.30;;;1.07;;
29030;SDS011;16122;50.236;11.734;2023-03-31T03:07:02;2.03;;;1.30;;
29030;SDS011;16122;50.236;11.734;2023-03-31T03:12:41;1.40;;;1.23;;
29030;SDS011;16122;50.236;11.734;2023-03-31T03:15:31;1.57;;;1.47;;
29030;SDS011;16122;50.236;11.734;2023-03-31T03:18:07;1.37;;;1.27;;
29030;SDS011;16122;50.236;11.734;2023-03-31T03:20:33;1.30;;;1.20;;
29030;SDS011;16122;50.236;11.734;2023-03-31T03:23:00;1.20;;;1.10;;
29030;SDS011;16122;50.236;11.734;2023-03-31T03:25:26;1.07;;;0.90;;
29030;SDS011;16122;50.236;11.734;2023-03-31T03:27:54;1.30;;;1.20;;
29030;SDS011;16122;50.236;11.734;2023-03-31T03:30:20;1.83;;;1.30;;
29030;SDS011;16122;50.236;11.734;2023-03-31T03:32:46;1.20;;;1.10;;
29030;SDS011;16122;50.236;11.734;2023-03-31T03:35:12;4.50;;;1.30;;
29030;SDS011;16122;50.236;11.734;2023-03-31T03:37:39;1.30;;;1.20;;
29030;SDS011;16122;50.236;11.734;2023-03-31T03:40:05;1.20;;;1.10;;
29030;SDS011;16122;50.236;11.734;2023-03-31T03:42:32;1.30;;;1.20;;
29030;SDS011;16122;50.236;11.734;2023-03-31T03:44:58;2.30;;;1.40;;
29030;SDS011;16122;50.236;11.734;2023-03-31T03:47:25;1.50;;;1.40;;
29030;SDS011;16122;50.236;11.734;2023-03-31T03:49:52;1.30;;;1.00;;
29030;SDS011;16122;50.236;11.734;2023-03-31T03:52:17;1.33;;;1.23;;
29030;SDS011;16122;50.236;11.734;2023-03-31T03:54:44;2.37;;;1.20;;
29030;SDS011;16122;50.236;11.734;2023-03-31T03:57:10;1.50;;;1.10;;
29030;SDS011;16122;50.236;11.734;2023-03-31T03:59:35;1.27;;;1.10;;
29030;SDS011;16122;50.236;11.734;2023-03-31T04:02:01;1.37;;;1.00;;
29030;SDS011;16122;50.236;11.734;2023-03-31T04:04:27;1.80;;;1.07;;
29030;SDS011;16122;50.236;11.734;2023-03-31T04:06:53;1.00;;;0.90;;
29030;SDS011;16122;50.236;11.734;2023-03-31T04:09:19;1.70;;;1.60;;
29030;SDS011;16122;50.236;11.734;2023-03-31T04:11:45;1.30;;;1.20;;
29030;SDS011;16122;50.236;11.734;2023-03-31T04:14:10;1.53;;;1.00;;
29030;SDS011;16122;50.236;11.734;2023-03-31T04:16:36;1.93;;;1.17;;
29030;SDS011;16122;50.236;11.734;2023-03-31T04:19:02;1.40;;;1.30;;
29030;SDS011;16122;50.236;11.734;2023-03-31T04:21:29;1.97;;;1.50;;
29030;SDS011;16122;50.236;11.734;2023-03-31T04:23:59;2.37;;;1.13;;
29030;SDS011;16122;50.236;11.734;2023-03-31T04:26:28;1.47;;;1.10;;
29030;SDS011;16122;50.236;11.734;2023-03-31T04:29:07;3.63;;;1.10;;
29030;SDS011;16122;50.236;11.734;2023-03-31T04:31:37;2.70;;;1.30;;
29030;SDS011;16122;50.236;11.734;2023-03-31T04:34:07;1.00;;;0.90;;
29030;SDS011;16122;50.236;11.734;2023-03-31T04:36:41;1.40;;;1.30;;
29030;SDS011;16122;50.236;11.734;2023-03-31T04:39:11;1.50;;;1.30;;
29030;SDS011;16122;50.236;11.734;2023-03-31T04:41:38;2.50;;;1.20;;
29030;SDS011;16122;50.236;11.734;2023-03-31T04:44:04;2.03;;;1.50;;
29030;SDS011;16122;50.236;11.734;2023-03-31T04:46:30;2.10;;;1.40;;
29030;SDS011;16122;50.236;11.734;2023-03-31T04:48:57;1.87;;;1.00;;
29030;SDS011;16122;50.236;11.734;2023-03-31T04:51:23;1.70;;;1.50;;
29030;SDS011;16122;50.236;11.734;2023-03-31T04:53:49;1.33;;;1.20;;
29030;SDS011;16122;50.236;11.734;2023-03-31T04:56:15;2.13;;;1.20;;
29030;SDS011;16122;50.236;11.734;2023-03-31T04:58:40;2.30;;;1.07;;
29030;SDS011;16122;50.236;11.734;2023-03-31T05:01:06;2.00;;;1.40;;
29030;SDS011;16122;50.236;11.734;2023-03-31T05:03:32;1.47;;;1.37;;
29030;SDS011;16122;50.236;11.734;2023-03-31T05:05:58;1.67;;;1.20;;
29030;SDS011;16122;50.236;11.734;2023-03-31T05:08:24;1.30;;;1.20;;
29030;SDS011;16122;50.236;11.734;2023-03-31T05:10:51;1.37;;;1.00;;
29030;SDS011;16122;50.236;11.734;2023-03-31T05:13:17;1.50;;;1.00;;
29030;SDS011;16122;50.236;11.734;2023-03-31T05:15:43;2.07;;;1.20;;
29030;SDS011;16122;50.236;11.734;2023-03-31T05:18:09;1.53;;;1.33;;
29030;SDS011;16122;50.236;11.734;2023-03-31T05:20:35;2.70;;;1.27;;
29030;SDS011;16122;50.236;11.734;2023-03-31T05:23:01;1.27;;;1.17;;
29030;SDS011;16122;50.236;11.734;2023-03-31T05:25:27;3.63;;;0.97;;
29030;SDS011;16122;50.236;11.734;2023-03-31T05:27:56;1.30;;;1.20;;
29030;SDS011;16122;50.236;11.734;2023-03-31T05:30:24;1.03;;;0.93;;
29030;SDS011;16122;50.236;11.734;2023-03-31T05:32:50;1.63;;;1.27;;
29030;SDS011;16122;50.236;11.734;2023-03-31T05:35:16;1.07;;;1.00;;
29030;SDS011;16122;50.236;11.734;2023-03-31T05:37:42;1.10;;;1.00;;
29030;SDS011;16122;50.236;11.734;2023-03-31T05:40:08;1.10;;;0.90;;
29030;SDS011;16122;50.236;11.734;2023-03-31T05:42:35;2.87;;;1.37;;
29030;SDS011;16122;50.236;11.734;2023-03-31T05:45:01;1.10;;;1.00;;
29030;SDS011;16122;50.236;11.734;2023-03-31T05:47:27;2.20;;;1.10;;
29030;SDS011;16122;50.236;11.734;2023-03-31T05:49:53;1.10;;;1.00;;
29030;SDS011;16122;50.236;11.734;2023-03-31T05:52:19;1.70;;;1.17;;
29030;SDS011;16122;50.236;11.734;2023-03-31T05:54:45;2.10;;;1.10;;
29030;SDS011;16122;50.236;11.734;2023-03-31T05:57:10;1.10;;;1.00;;
29030;SDS011;16122;50.236;11.734;2023-03-31T05:59:36;2.00;;;0.93;;
29030;SDS011;16122;50.236;11.734;2023-03-31T06:02:02;3.47;;;1.20;;
29030;SDS011;16122;50.236;11.734;2023-03-31T06:04:28;2.07;;;1.20;;
29030;SDS011;16122;50.236;11.734;2023-03-31T06:06:56;1.20;;;1.03;;
29030;SDS011;16122;50.236;11.734;2023-03-31T06:09:22;1.00;;;0.90;;
29030;SDS011;16122;50.236;11.734;2023-03-31T06:11:48;1.67;;;1.20;;
29030;SDS011;16122;50.236;11.734;2023-03-31T06:14:14;1.13;;;1.03;;
29030;SDS011;16122;50.236;11.734;2023-03-31T06:16:40;1.37;;;0.90;;
29030;SDS011;16122;50.236;11.734;2023-03-31T06:19:06;1.00;;;1.00;;
29030;SDS011;16122;50.236;11.734;2023-03-31T06:21:32;2.17;;;0.97;;
29030;SDS011;16122;50.236;11.734;2023-03-31T06:23:58;2.20;;;1.23;;
29030;SDS011;16122;50.236;11.734;2023-03-31T06:26:25;1.20;;;0.93;;
29030;SDS011;16122;50.236;11.734;2023-03-31T06:28:52;1.10;;;0.93;;
29030;SDS011;16122;50.236;11.734;2023-03-31T06:31:19;1.53;;;1.20;;
29030;SDS011;16122;50.236;11.734;2023-03-31T06:33:46;2.47;;;1.07;;
29030;SDS011;16122;50.236;11.734;2023-03-31T06:36:13;1.43;;;1.20;;
29030;SDS011;16122;50.236;11.734;2023-03-31T06:38:41;1.20;;;1.10;;
29030;SDS011;16122;50.236;11.734;2023-03-31T06:41:08;10.67;;;1.40;;
29030;SDS011;16122;50.236;11.734;2023-03-31T06:43:36;1.27;;;1.00;;
29030;SDS011;16122;50.236;11.734;2023-03-31T06:46:02;1.17;;;0.97;;
29030;SDS011;16122;50.236;11.734;2023-03-31T06:48:28;1.77;;;1.03;;
29030;SDS011;16122;50.236;11.734;2023-03-31T06:50:55;2.10;;;0.93;;
29030;SDS011;16122;50.236;11.734;2023-03-31T06:53:24;1.10;;;1.00;;
29030;SDS011;16122;50.236;11.734;2023-03-31T06:55:50;1.40;;;1.00;;
29030;SDS011;16122;50.236;11.734;2023-03-31T06:58:16;2.00;;;1.10;;
29030;SDS011;16122;50.236;11.734;2023-03-31T07:00:42;1.30;;;0.90;;
29030;SDS011;16122;50.236;11.734;2023-03-31T07:03:10;1.23;;;1.00;;
29030;SDS011;16122;50.236;11.734;2023-03-31T07:05:36;1.10;;;1.00;;
29030;SDS011;16122;50.236;11.734;2023-03-31T07:08:02;1.63;;;1.00;;
29030;SDS011;16122;50.236;11.734;2023-03-31T07:10:29;2.80;;;1.10;;
29030;SDS011;16122;50.236;11.734;2023-03-31T07:12:56;2.23;;;1.30;;
29030;SDS011;16122;50.236;11.734;2023-03-31T07:15:22;1.00;;;0.90;;
29030;SDS011;16122;50.236;11.734;2023-03-31T07:17:49;1.40;;;1.00;;
29030;SDS011;16122;50.236;11.734;2023-03-31T07:20:18;3.20;;;1.33;;
29030;SDS011;16122;50.236;11.734;2023-03-31T07:22:44;0.83;;;0.83;;
29030;SDS011;16122;50.236;11.734;2023-03-31T07:25:12;1.20;;;0.90;;
29030;SDS011;16122;50.236;11.734;2023-03-31T07:27:40;1.00;;;0.90;;
29030;SDS011;16122;50.236;11.734;2023-03-31T07:30:06;1.20;;;1.00;;
29030;SDS011;16122;50.236;11.734;2023-03-31T07:32:34;1.20;;;1.10;;
29030;SDS011;16122;50.236;11.734;2023-03-31T07:35:04;1.50;;;1.07;;
29030;SDS011;16122;50.236;11.734;2023-03-31T07:37:41;2.30;;;1.20;;
29030;SDS011;16122;50.236;11.734;2023-03-31T07:40:09;1.53;;;1.07;;
29030;SDS011;16122;50.236;11.734;2023-03-31T07:42:41;1.00;;;0.90;;
29030;SDS011;16122;50.236;11.734;2023-03-31T07:45:07;1.90;;;1.10;;
29030;SDS011;16122;50.236;11.734;2023-03-31T07:47:34;1.17;;;1.07;;
29030;SDS011;16122;50.236;11.734;2023-03-31T07:50:00;1.60;;;1.17;;
29030;SDS011;16122;50.236;11.734;2023-03-31T07:52:26;1.17;;;1.00;;
29030;SDS011;16122;50.236;11.734;2023-03-31T07:54:52;1.37;;;1.27;;
29030;SDS011;16122;50.236;11.734;2023-03-31T07:57:18;1.03;;;0.97;;
29030;SDS011;16122;50.236;11.734;2023-03-31T07:59:47;1.00;;;0.90;;
29030;SDS011;16122;50.236;11.734;2023-03-31T08:02:13;1.10;;;1.00;;
29030;SDS011;16122;50.236;11.734;2023-03-31T08:04:40;1.30;;;1.10;;
29030;SDS011;16122;50.236;11.734;2023-03-31T08:07:10;1.23;;;0.83;;
29030;SDS011;16122;50.236;11.734;2023-03-31T08:09:37;1.30;;;1.20;;
29030;SDS011;16122;50.236;11.734;2023-03-31T08:12:04;1.40;;;1.30;;
29030;SDS011;16122;50.236;11.734;2023-03-31T08:14:30;1.10;;;1.00;;
29030;SDS011;16122;50.236;11.734;2023-03-31T08:16:57;3.27;;;1.30;;
29030;SDS011;16122;50.236;11.734;2023-03-31T08:19:24;0.90;;;0.80;;
29030;SDS011;16122;50.236;11.734;2023-03-31T08:21:51;1.47;;;1.20;;
29030;SDS011;16122;50.236;11.734;2023-03-31T08:24:17;1.10;;;1.00;;
29030;SDS011;16122;50.236;11.734;2023-03-31T08:26:43;1.23;;;1.00;;
29030;SDS011;16122;50.236;11.734;2023-03-31T08:29:10;1.20;;;1.10;;
29030;SDS011;16122;50.236;11.734;2023-03-31T08:31:36;1.10;;;0.90;;
29030;SDS011;16122;50.236;11.734;2023-03-31T08:34:02;1.07;;;0.97;;
29030;SDS011;16122;50.236;11.734;2023-03-31T08:36:28;2.43;;;1.20;;
29030;SDS011;16122;50.236;11.734;2023-03-31T08:38:54;1.23;;;1.00;;
29030;SDS011;16122;50.236;11.734;2023-03-31T08:43:53;1.10;;;1.00;;
29030;SDS011;16122;50.236;11.734;2023-03-31T08:46:22;1.50;;;1.23;;
29030;SDS011;16122;50.236;11.734;2023-03-31T08:48:58;2.00;;;1.10;;
29030;SDS011;16122;50.236;11.734;2023-03-31T08:51:32;1.07;;;0.90;;
29030;SDS011;16122;50.236;11.734;2023-03-31T08:54:15;1.10;;;1.00;;
29030;SDS011;16122;50.236;11.734;2023-03-31T08:56:57;1.13;;;1.10;;
29030;SDS011;16122;50.236;11.734;2023-03-31T08:59:28;2.30;;;1.17;;
29030;SDS011;16122;50.236;11.734;2023-03-31T09:02:20;1.50;;;1.40;;
29030;SDS011;16122;50.236;11.734;2023-03-31T09:08:33;1.70;;;1.30;;
29030;SDS011;16122;50.236;11.734;2023-03-31T09:11:05;1.10;;;1.00;;
29030;SDS011;16122;50.236;11.734;2023-03-31T09:16:13;1.20;;;1.10;;
29030;SDS011;16122;50.236;11.734;2023-03-31T09:18:42;1.50;;;1.10;;
29030;SDS011;16122;50.236;11.734;2023-03-31T09:21:18;1.27;;;1.17;;
29030;SDS011;16122;50.236;11.734;2023-03-31T09:26:40;1.87;;;1.23;;
29030;SDS011;16122;50.236;11.734;2023-03-31T09:29:33;1.10;;;1.00;;
29030;SDS011;16122;50.236;11.734;2023-03-31T09:32:24;1.13;;;1.00;;
29030;SDS011;16122;50.236;11.734;2023-03-31T09:34:58;1.53;;;1.10;;
29030;SDS011;16122;50.236;11.734;2023-03-31T09:37:36;1.10;;;1.00;;
29030;SDS011;16122;50.236;11.734;2023-03-31T09:40:02;1.57;;;1.30;;
29030;SDS011;16122;50.236;11.734;2023-03-31T09:42:34;1.00;;;1.00;;
29030;SDS011;16122;50.236;11.734;2023-03-31T09:45:02;1.37;;;1.13;;
29030;SDS011;16122;50.236;11.734;2023-03-31T09:47:39;1.20;;;1.00;;
29030;SDS011;16122;50.236;11.734;2023-03-31T09:50:07;1.10;;;1.00;;
29030;SDS011;16122;50.236;11.734;2023-03-31T09:52:36;1.30;;;1.20;;
29030;SDS011;16122;50.236;11.734;2023-03-31T09:55:27;1.20;;;1.10;;
29030;SDS011;16122;50.236;11.734;2023-03-31T09:58:12;2.00;;;1.33;;
29030;SDS011;16122;50.236;11.734;2023-03-31T10:00:42;1.07;;;0.97;;
29030;SDS011;16122;50.236;11.734;2023-03-31T10:03:21;1.30;;;1.20;;
29030;SDS011;16122;50.236;11.734;2023-03-31T10:05:52;1.20;;;1.10;;
29030;SDS011;16122;50.236;11.734;2023-03-31T10:08:28;1.33;;;1.23;;
29030;SDS011;16122;50.236;11.734;2023-03-31T10:11:05;1.40;;;1.30;;
29030;SDS011;16122;50.236;11.734;2023-03-31T10:14:22;2.77;;;1.17;;
29030;SDS011;16122;50.236;11.734;2023-03-31T10:16:42;1.30;;;1.20;;
29030;SDS011;16122;50.236;11.734;2023-03-31T10:19:35;1.33;;;1.23;;
29030;SDS011;16122;50.236;11.734;2023-03-31T10:22:14;1.10;;;1.00;;
29030;SDS011;16122;50.236;11.734;2023-03-31T10:24:50;1.40;;;1.03;;
29030;SDS011;16122;50.236;11.734;2023-03-31T10:27:21;1.60;;;1.50;;
29030;SDS011;16122;50.236;11.734;2023-03-31T10:29:52;1.60;;;1.20;;
29030;SDS011;16122;50.236;11.734;2023-03-31T10:32:27;1.40;;;1.30;;
29030;SDS011;16122;50.236;11.734;2023-03-31T10:35:03;1.87;;;1.20;;
29030;SDS011;16122;50.236;11.734;2023-03-31T10:37:53;1.77;;;1.37;;
29030;SDS011;16122;50.236;11.734;2023-03-31T10:40:23;1.27;;;1.17;;
29030;SDS011;16122;50.236;11.734;2023-03-31T10:42:59;1.43;;;1.23;;
29030;SDS011;16122;50.236;11.734;2023-03-31T10:45:36;2.07;;;1.40;;
29030;SDS011;16122;50.236;11.734;2023-03-31T10:48:15;1.90;;;1.30;;
29030;SDS011;16122;50.236;11.734;2023-03-31T10:51:17;1.97;;;1.30;;
29030;SDS011;16122;50.236;11.734;2023-03-31T10:53:52;1.30;;;1.20;;
29030;SDS011;16122;50.236;11.734;2023-03-31T11:01:53;1.50;;;1.40;;
29030;SDS011;16122;50.236;11.734;2023-03-31T11:04:43;1.50;;;1.40;;
29030;SDS011;16122;50.236;11.734;2023-03-31T11:18:29;3.40;;;1.60;;
29030;SDS011;16122;50.236;11.734;2023-03-31T11:40:40;1.97;;;1.77;;
29030;SDS011;16122;50.236;11.734;2023-03-31T11:46:11;2.37;;;1.53;;
29030;SDS011;16122;50.236;11.734;2023-03-31T11:48:52;2.60;;;1.83;;
29030;SDS011;16122;50.236;11.734;2023-03-31T11:54:17;2.13;;;1.87;;
29030;SDS011;16122;50.236;11.734;2023-03-31T11:56:50;2.50;;;2.13;;
29030;SDS011;16122;50.236;11.734;2023-03-31T11:59:17;3.23;;;1.90;;
29030;SDS011;16122;50.236;11.734;2023-03-31T12:01:49;2.40;;;2.20;;
29030;SDS011;16122;50.236;11.734;2023-03-31T12:04:37;4.17;;;1.87;;
29030;SDS011;16122;50.236;11.734;2023-03-31T12:12:53;2.27;;;1.87;;
29030;SDS011;16122;50.236;11.734;2023-03-31T12:15:24;2.80;;;1.90;;
29030;SDS011;16122;50.236;11.734;2023-03-31T12:18:02;4.73;;;1.80;;
29030;SDS011;16122;50.236;11.734;2023-03-31T12:20:36;2.77;;;1.90;;
29030;SDS011;16122;50.236;11.734;2023-03-31T12:23:10;1.67;;;1.57;;
29030;SDS011;16122;50.236;11.734;2023-03-31T12:28:48;2.33;;;2.13;;
29030;SDS011;16122;50.236;11.734;2023-03-31T12:31:21;2.07;;;1.43;;
29030;SDS011;16122;50.236;11.734;2023-03-31T12:34:11;1.60;;;1.43;;
29030;SDS011;16122;50.236;11.734;2023-03-31T12:36:44;2.70;;;1.87;;
29030;SDS011;16122;50.236;11.734;2023-03-31T12:55:47;2.53;;;1.80;;
29030;SDS011;16122;50.236;11.734;2023-03-31T13:11:44;2.20;;;1.70;;
29030;SDS011;16122;50.236;11.734;2023-03-31T13:17:09;1.80;;;1.70;;
29030;SDS011;16122;50.236;11.734;2023-03-31T13:19:42;2.03;;;1.93;;
29030;SDS011;16122;50.236;11.734;2023-03-31T13:22:26;6.90;;;2.53;;
29030;SDS011;16122;50.236;11.734;2023-03-31T13:28:07;2.90;;;1.63;;
29030;SDS011;16122;50.236;11.734;2023-03-31T13:30:46;3.30;;;1.80;;
29030;SDS011;16122;50.236;11.734;2023-03-31T13:36:28;6.10;;;1.90;;
29030;SDS011;16122;50.236;11.734;2023-03-31T14:07:54;5.07;;;1.87;;
29030;SDS011;16122;50.236;11.734;2023-03-31T14:10:31;3.67;;;2.03;;
29030;SDS011;16122;50.236;11.734;2023-03-31T14:13:12;1.90;;;1.50;;
29030;SDS011;16122;50.236;11.734;2023-03-31T14:15:44;4.40;;;1.80;;
29030;SDS011;16122;50.236;11.734;2023-03-31T14:18:28;2.23;;;1.83;;
29030;SDS011;16122;50.236;11.734;2023-03-31T14:26:30;5.00;;;1.50;;
29030;SDS011;16122;50.236;11.734;2023-03-31T14:29:05;3.70;;;2.00;;
29030;SDS011;16122;50.236;11.734;2023-03-31T14:31:58;4.67;;;1.80;;
29030;SDS011;16122;50.236;11.734;2023-03-31T14:34:55;2.50;;;2.00;;
29030;SDS011;16122;50.236;11.734;2023-03-31T14:37:29;3.23;;;2.07;;
29030;SDS011;16122;50.236;11.734;2023-03-31T14:39:56;4.97;;;2.00;;
29030;SDS011;16122;50.236;11.734;2023-03-31T14:42:28;3.00;;;1.83;;
29030;SDS011;16122;50.236;11.734;2023-03-31T14:45:05;3.77;;;1.70;;
29030;SDS011;16122;50.236;11.734;2023-03-31T14:47:52;4.57;;;2.40;;
29030;SDS011;16122;50.236;11.734;2023-03-31T14:50:19;3.27;;;1.73;;
29030;SDS011;16122;50.236;11.734;2023-03-31T14:52:48;2.00;;;1.63;;
29030;SDS011;16122;50.236;11.734;2023-03-31T14:55:16;3.67;;;1.70;;
29030;SDS011;16122;50.236;11.734;2023-03-31T14:57:46;2.90;;;2.33;;
29030;SDS011;16122;50.236;11.734;2023-03-31T15:00:15;2.90;;;1.67;;
29030;SDS011;16122;50.236;11.734;2023-03-31T15:02:48;2.80;;;2.50;;
29030;SDS011;16122;50.236;11.734;2023-03-31T15:05:35;2.07;;;1.93;;
29030;SDS011;16122;50.236;11.734;2023-03-31T15:08:05;3.80;;;2.23;;
29030;SDS011;16122;50.236;11.734;2023-03-31T15:10:36;3.50;;;2.03;;
29030;SDS011;16122;50.236;11.734;2023-03-31T15:19:03;3.90;;;2.27;;
29030;SDS011;16122;50.236;11.734;2023-03-31T15:21:36;4.93;;;2.17;;
29030;SDS011;16122;50.236;11.734;2023-03-31T15:24:05;2.60;;;2.40;;
29030;SDS011;16122;50.236;11.734;2023-03-31T15:26:36;2.27;;;1.97;;
29030;SDS011;16122;50.236;11.734;2023-03-31T15:29:10;2.40;;;1.87;;
29030;SDS011;16122;50.236;11.734;2023-03-31T15:31:41;3.60;;;1.97;;
29030;SDS011;16122;50.236;11.734;2023-03-31T15:34:14;2.70;;;1.53;;
29030;SDS011;16122;50.236;11.734;2023-03-31T15:36:46;3.10;;;2.03;;
29030;SDS011;16122;50.236;11.734;2023-03-31T15:39:12;1.90;;;1.70;;
29030;SDS011;16122;50.236;11.734;2023-03-31T15:41:38;2.00;;;1.80;;
29030;SDS011;16122;50.236;11.734;2023-03-31T15:44:06;3.70;;;2.00;;
29030;SDS011;16122;50.236;11.734;2023-03-31T15:46:56;2.30;;;1.60;;
29030;SDS011;16122;50.236;11.734;2023-03-31T15:49:30;5.20;;;1.80;;
29030;SDS011;16122;50.236;11.734;2023-03-31T15:51:56;6.10;;;2.10;;
29030;SDS011;16122;50.236;11.734;2023-03-31T15:57:08;4.47;;;2.13;;
29030;SDS011;16122;50.236;11.734;2023-03-31T15:59:42;3.67;;;1.67;;
29030;SDS011;16122;50.236;11.734;2023-03-31T16:02:20;6.20;;;1.80;;
29030;SDS011;16122;50.236;11.734;2023-03-31T16:04:55;2.80;;;1.90;;
29030;SDS011;16122;50.236;11.734;2023-03-31T16:07:24;3.37;;;2.00;;
29030;SDS011;16122;50.236;11.734;2023-03-31T16:14:59;2.27;;;1.60;;
29030;SDS011;16122;50.236;11.734;2023-03-31T16:17:32;2.30;;;1.70;;
29030;SDS011;16122;50.236;11.734;2023-03-31T16:20:16;8.30;;;2.20;;
29030;SDS011;16122;50.236;11.734;2023-03-31T16:22:47;11.67;;;2.53;;
29030;SDS011;16122;50.236;11.734;2023-03-31T16:25:16;6.03;;;2.40;;
29030;SDS011;16122;50.236;11.734;2023-03-31T16:27:46;3.13;;;1.87;;
29030;SDS011;16122;50.236;11.734;2023-03-31T16:30:16;7.10;;;1.97;;
29030;SDS011;16122;50.236;11.734;2023-03-31T16:33:18;4.83;;;2.90;;
29030;SDS011;16122;50.236;11.734;2023-03-31T16:35:39;2.23;;;1.90;;
29030;SDS011;16122;50.236;11.734;2023-03-31T16:38:10;2.50;;;1.90;;
29030;SDS011;16122;50.236;11.734;2023-03-31T16:40:40;6.43;;;1.70;;
29030;SDS011;16122;50.236;11.734;2023-03-31T16:43:18;1.93;;;1.60;;
29030;SDS011;16122;50.236;11.734;2023-03-31T16:45:46;1.97;;;1.70;;
29030;SDS011;16122;50.236;11.734;2023-03-31T16:48:17;2.50;;;1.90;;
29030;SDS011;16122;50.236;11.734;2023-03-31T16:50:45;5.70;;;2.80;;
29030;SDS011;16122;50.236;11.734;2023-03-31T16:53:12;2.37;;;1.50;;
29030;SDS011;16122;50.236;11.734;2023-03-31T16:55:40;3.80;;;1.60;;
29030;SDS011;16122;50.236;11.734;2023-03-31T16:58:06;6.17;;;1.73;;
29030;SDS011;16122;50.236;11.734;2023-03-31T17:00:33;5.30;;;1.90;;
29030;SDS011;16122;50.236;11.734;2023-03-31T17:03:00;3.00;;;2.07;;
29030;SDS011;16122;50.236;11.734;2023-03-31T17:05:30;4.80;;;1.53;;
29030;SDS011;16122;50.236;11.734;2023-03-31T17:07:58;4.07;;;1.80;;
29030;SDS011;16122;50.236;11.734;2023-03-31T17:10:24;1.63;;;1.53;;
29030;SDS011;16122;50.236;11.734;2023-03-31T17:12:50;4.50;;;1.60;;
29030;SDS011;16122;50.236;11.734;2023-03-31T17:15:16;3.10;;;1.40;;
29030;SDS011;16122;50.236;11.734;2023-03-31T17:17:42;2.03;;;1.77;;
29030;SDS011;16122;50.236;11.734;2023-03-31T17:20:08;6.10;;;1.80;;
29030;SDS011;16122;50.236;11.734;2023-03-31T17:22:34;4.53;;;1.80;;
29030;SDS011;16122;50.236;11.734;2023-03-31T17:25:00;2.83;;;1.47;;
29030;SDS011;16122;50.236;11.734;2023-03-31T17:27:27;2.20;;;1.80;;
29030;SDS011;16122;50.236;11.734;2023-03-31T17:29:54;3.40;;;1.60;;
29030;SDS011;16122;50.236;11.734;2023-03-31T17:32:20;4.93;;;1.67;;
29030;SDS011;16122;50.236;11.734;2023-03-31T17:34:46;2.90;;;1.30;;
29030;SDS011;16122;50.236;11.734;2023-03-31T17:37:16;2.37;;;1.43;;
29030;SDS011;16122;50.236;11.734;2023-03-31T17:39:42;3.70;;;1.63;;
29030;SDS011;16122;50.236;11.734;2023-03-31T17:42:09;3.40;;;1.47;;
29030;SDS011;16122;50.236;11.734;2023-03-31T17:44:36;3.60;;;2.33;;
29030;SDS011;16122;50.236;11.734;2023-03-31T17:47:02;3.47;;;1.70;;
29030;SDS011;16122;50.236;11.734;2023-03-31T17:49:28;3.93;;;1.53;;
29030;SDS011;16122;50.236;11.734;2023-03-31T17:51:53;5.23;;;1.90;;
29030;SDS011;16122;50.236;11.734;2023-03-31T17:54:20;3.67;;;1.83;;
29030;SDS011;16122;50.236;11.734;2023-03-31T17:56:46;2.70;;;1.70;;
29030;SDS011;16122;50.236;11.734;2023-03-31T17:59:15;2.30;;;1.27;;
29030;SDS011;16122;50.236;11.734;2023-03-31T18:01:42;2.43;;;1.80;;
29030;SDS011;16122;50.236;11.734;2023-03-31T18:04:08;9.07;;;1.70;;
29030;SDS011;16122;50.236;11.734;2023-03-31T18:06:34;2.10;;;1.60;;